Terminal Aerodrome Forecast
Issued by NWS

Home | Current Version | Previous Version | Text Only | Print | Product List | Glossary On
Versions: 1 2 3 4 5 6 7 8 9 10 11 12 13 14 15 16 17 18 19 20 21 22 23 24 25 26 27 28 29
000
FTUS45 KGJT 050111 AAA
TAFMTJ
TAF AMD
KMTJ 050111Z 0501/0524 14012KT P6SM VCTS BKN080CB BKN120
      TEMPO 0501/0502 14015G25KT -TSRA BKN050CB
     FM050200 15006KT P6SM VCSH SCT080 BKN100
     FM051500 35006KT P6SM VCSH BKN080
     FM052000 23010KT P6SM -TSRA SCT050 BKN080CB=

USA.gov is the U.S. government's official web portal to all federal, state and local government web resources and services.